sensor_id;sensor_type;location;lat;lon;timestamp;temperature;humidity
25568;DHT22;13455;51.480;7.594;2022-10-16T08:37:35;15.30;99.90
25568;DHT22;13455;51.480;7.594;2022-10-16T08:40:01;15.50;99.90
25568;DHT22;13455;51.480;7.594;2022-10-16T08:50:25;15.80;99.90
25568;DHT22;13455;51.480;7.594;2022-10-16T08:52:52;15.80;99.90
25568;DHT22;13455;51.480;7.594;2022-10-16T08:55:38;15.90;99.90
25568;DHT22;13455;51.480;7.594;2022-10-16T08:58:13;16.10;99.90
25568;DHT22;13455;51.480;7.594;2022-10-16T09:00:39;16.10;99.90
25568;DHT22;13455;51.480;7.594;2022-10-16T09:08:53;16.30;99.90
25568;DHT22;13455;51.480;7.594;2022-10-16T09:11:51;16.50;99.90
25568;DHT22;13455;51.480;7.594;2022-10-16T09:17:17;16.60;99.90
25568;DHT22;13455;51.480;7.594;2022-10-16T09:22:17;16.80;99.90
25568;DHT22;13455;51.480;7.594;2022-10-16T09:24:43;17.00;99.90
25568;DHT22;13455;51.480;7.594;2022-10-16T09:27:11;16.90;99.90
25568;DHT22;13455;51.480;7.594;2022-10-16T09:29:37;17.10;99.90
25568;DHT22;13455;51.480;7.594;2022-10-16T09:34:57;17.40;99.90
25568;DHT22;13455;51.480;7.594;2022-10-16T09:37:23;17.20;99.90
25568;DHT22;13455;51.480;7.594;2022-10-16T09:39:54;17.50;99.90
25568;DHT22;13455;51.480;7.594;2022-10-16T09:42:35;17.60;99.90
25568;DHT22;13455;51.480;7.594;2022-10-16T09:45:02;17.70;99.90
25568;DHT22;13455;51.480;7.594;2022-10-16T09:47:30;17.80;99.90
25568;DHT22;13455;51.480;7.594;2022-10-16T09:52:31;18.80;99.90
25568;DHT22;13455;51.480;7.594;2022-10-16T09:57:28;18.40;99.90
25568;DHT22;13455;51.480;7.594;2022-10-16T09:59:58;18.40;99.90
25568;DHT22;13455;51.480;7.594;2022-10-16T10:05:02;18.50;99.90
25568;DHT22;13455;51.480;7.594;2022-10-16T10:10:25;18.20;99.90
25568;DHT22;13455;51.480;7.594;2022-10-16T10:15:17;18.80;99.90
25568;DHT22;13455;51.480;7.594;2022-10-16T10:17:51;18.70;99.90
25568;DHT22;13455;51.480;7.594;2022-10-16T10:20:30;18.70;99.90
25568;DHT22;13455;51.480;7.594;2022-10-16T10:22:58;18.70;99.90
25568;DHT22;13455;51.480;7.594;2022-10-16T10:25:56;18.70;99.90
25568;DHT22;13455;51.480;7.594;2022-10-16T10:49:19;19.80;99.90
25568;DHT22;13455;51.480;7.594;2022-10-16T11:07:36;21.10;99.90
25568;DHT22;13455;51.480;7.594;2022-10-16T11:15:18;21.70;99.90
25568;DHT22;13455;51.480;7.594;2022-10-16T11:41:16;23.60;99.90
25568;DHT22;13455;51.480;7.594;2022-10-16T11:43:50;23.80;99.90
25568;DHT22;13455;51.480;7.594;2022-10-16T11:46:21;23.90;99.90
25568;DHT22;13455;51.480;7.594;2022-10-16T11:52:10;24.20;99.90
25568;DHT22;13455;51.480;7.594;2022-10-16T12:04:31;25.50;99.90
25568;DHT22;13455;51.480;7.594;2022-10-16T12:09:30;26.00;99.90
25568;DHT22;13455;51.480;7.594;2022-10-16T12:11:57;26.40;99.90
25568;DHT22;13455;51.480;7.594;2022-10-16T12:21:55;27.30;99.90
25568;DHT22;13455;51.480;7.594;2022-10-16T12:27:27;27.60;99.90
25568;DHT22;13455;51.480;7.594;2022-10-16T12:30:01;27.80;96.60
25568;DHT22;13455;51.480;7.594;2022-10-16T12:47:56;28.00;99.90
25568;DHT22;13455;51.480;7.594;2022-10-16T12:50:36;28.30;91.60
25568;DHT22;13455;51.480;7.594;2022-10-16T12:53:16;28.70;91.20
25568;DHT22;13455;51.480;7.594;2022-10-16T12:56:05;29.20;87.50
25568;DHT22;13455;51.480;7.594;2022-10-16T13:17:52;30.10;72.20
25568;DHT22;13455;51.480;7.594;2022-10-16T13:23:13;29.60;70.50
25568;DHT22;13455;51.480;7.594;2022-10-16T13:45:57;27.60;67.80
25568;DHT22;13455;51.480;7.594;2022-10-16T13:56:02;26.40;99.90
25568;DHT22;13455;51.480;7.594;2022-10-16T14:01:01;26.10;75.50
25568;DHT22;13455;51.480;7.594;2022-10-16T14:13:37;25.40;77.70
25568;DHT22;13455;51.480;7.594;2022-10-16T14:18:37;25.00;80.30
25568;DHT22;13455;51.480;7.594;2022-10-16T14:23:39;24.80;96.80
25568;DHT22;13455;51.480;7.594;2022-10-16T14:31:01;24.30;85.90
25568;DHT22;13455;51.480;7.594;2022-10-16T14:36:13;24.00;87.20
25568;DHT22;13455;51.480;7.594;2022-10-16T14:46:20;23.80;99.90
25568;DHT22;13455;51.480;7.594;2022-10-16T14:48:48;23.60;90.60
25568;DHT22;13455;51.480;7.594;2022-10-16T14:51:19;23.50;91.70
25568;DHT22;13455;51.480;7.594;2022-10-16T14:56:20;23.20;92.30
25568;DHT22;13455;51.480;7.594;2022-10-16T15:01:12;22.80;93.90
25568;DHT22;13455;51.480;7.594;2022-10-16T15:06:10;22.80;95.50
25568;DHT22;13455;51.480;7.594;2022-10-16T15:11:02;22.40;95.50
25568;DHT22;13455;51.480;7.594;2022-10-16T15:13:28;22.30;96.20
25568;DHT22;13455;51.480;7.594;2022-10-16T15:15:54;22.30;96.60
25568;DHT22;13455;51.480;7.594;2022-10-16T15:23:17;21.90;97.20
25568;DHT22;13455;51.480;7.594;2022-10-16T15:25:48;21.80;98.20
25568;DHT22;13455;51.480;7.594;2022-10-16T15:38:24;21.10;99.90
25568;DHT22;13455;51.480;7.594;2022-10-16T15:43:17;21.20;99.90
25568;DHT22;13455;51.480;7.594;2022-10-16T15:57:59;20.70;99.90
25568;DHT22;13455;51.480;7.594;2022-10-16T17:33:14;18.40;99.90
25568;DHT22;13455;51.480;7.594;2022-10-16T17:35:42;18.30;99.90
25568;DHT22;13455;51.480;7.594;2022-10-16T17:40:35;18.10;99.90
25568;DHT22;13455;51.480;7.594;2022-10-16T17:43:01;18.10;99.90
25568;DHT22;13455;51.480;7.594;2022-10-16T17:45:27;18.10;99.90
25568;DHT22;13455;51.480;7.594;2022-10-16T17:52:46;17.90;99.90
25568;DHT22;13455;51.480;7.594;2022-10-16T17:55:11;17.90;99.90
25568;DHT22;13455;51.480;7.594;2022-10-16T18:12:15;17.70;99.90
25568;DHT22;13455;51.480;7.594;2022-10-16T18:14:40;17.60;99.90
25568;DHT22;13455;51.480;7.594;2022-10-16T18:17:06;17.60;99.90
25568;DHT22;13455;51.480;7.594;2022-10-16T18:19:32;17.60;99.90
25568;DHT22;13455;51.480;7.594;2022-10-16T18:21:58;17.50;99.90
25568;DHT22;13455;51.480;7.594;2022-10-16T18:24:24;17.50;99.90
25568;DHT22;13455;51.480;7.594;2022-10-16T18:26:52;17.50;99.90
25568;DHT22;13455;51.480;7.594;2022-10-16T18:29:25;17.40;99.90
25568;DHT22;13455;51.480;7.594;2022-10-16T18:34:17;17.40;99.90
25568;DHT22;13455;51.480;7.594;2022-10-16T18:36:43;17.40;99.90
25568;DHT22;13455;51.480;7.594;2022-10-16T18:39:10;17.30;99.90
25568;DHT22;13455;51.480;7.594;2022-10-16T18:41:40;17.30;99.90
25568;DHT22;13455;51.480;7.594;2022-10-16T18:44:07;17.30;99.90
25568;DHT22;13455;51.480;7.594;2022-10-16T18:46:36;17.30;99.90
25568;DHT22;13455;51.480;7.594;2022-10-16T18:49:02;17.30;99.90
25568;DHT22;13455;51.480;7.594;2022-10-16T18:51:37;17.20;99.90
25568;DHT22;13455;51.480;7.594;2022-10-16T19:08:48;17.20;99.90
25568;DHT22;13455;51.480;7.594;2022-10-16T19:11:16;17.10;99.90
25568;DHT22;13455;51.480;7.594;2022-10-16T19:13:43;17.10;99.90
25568;DHT22;13455;51.480;7.594;2022-10-16T19:26:36;17.10;99.90
25568;DHT22;13455;51.480;7.594;2022-10-16T19:28:56;16.70;99.90
25568;DHT22;13455;51.480;7.594;2022-10-16T19:31:25;17.10;99.90
25568;DHT22;13455;51.480;7.594;2022-10-16T19:33:56;17.10;99.90
25568;DHT22;13455;51.480;7.594;2022-10-16T19:36:24;17.10;99.90
25568;DHT22;13455;51.480;7.594;2022-10-16T19:38:58;17.10;99.90
25568;DHT22;13455;51.480;7.594;2022-10-16T19:43:51;17.10;99.90
25568;DHT22;13455;51.480;7.594;2022-10-16T19:53:40;17.20;99.90
25568;DHT22;13455;51.480;7.594;2022-10-16T19:58:39;17.30;99.90
25568;DHT22;13455;51.480;7.594;2022-10-16T20:01:05;16.90;99.90
25568;DHT22;13455;51.480;7.594;2022-10-16T20:03:30;16.90;99.90
25568;DHT22;13455;51.480;7.594;2022-10-16T20:08:23;16.80;99.90
25568;DHT22;13455;51.480;7.594;2022-10-16T20:10:53;16.80;99.90
25568;DHT22;13455;51.480;7.594;2022-10-16T20:13:19;16.80;99.90
25568;DHT22;13455;51.480;7.594;2022-10-16T20:15:45;16.80;99.90
25568;DHT22;13455;51.480;7.594;2022-10-16T20:18:11;16.90;99.90
25568;DHT22;13455;51.480;7.594;2022-10-16T20:20:38;16.70;99.90
25568;DHT22;13455;51.480;7.594;2022-10-16T20:23:04;16.70;99.90
25568;DHT22;13455;51.480;7.594;2022-10-16T20:25:34;16.80;99.90
25568;DHT22;13455;51.480;7.594;2022-10-16T20:28:00;16.70;99.90
25568;DHT22;13455;51.480;7.594;2022-10-16T20:30:26;16.70;99.90
25568;DHT22;13455;51.480;7.594;2022-10-16T20:32:51;16.70;99.90
25568;DHT22;13455;51.480;7.594;2022-10-16T20:35:18;16.60;99.90
25568;DHT22;13455;51.480;7.594;2022-10-16T20:37:44;16.60;99.90
25568;DHT22;13455;51.480;7.594;2022-10-16T20:40:13;16.60;99.90
25568;DHT22;13455;51.480;7.594;2022-10-16T20:42:39;16.60;99.90
25568;DHT22;13455;51.480;7.594;2022-10-16T20:45:05;16.50;99.90
25568;DHT22;13455;51.480;7.594;2022-10-16T20:47:31;16.50;99.90
25568;DHT22;13455;51.480;7.594;2022-10-16T20:49:57;16.50;99.90
25568;DHT22;13455;51.480;7.594;2022-10-16T20:52:23;16.40;99.90
25568;DHT22;13455;51.480;7.594;2022-10-16T20:54:49;16.40;99.90
25568;DHT22;13455;51.480;7.594;2022-10-16T20:57:15;16.60;99.90
25568;DHT22;13455;51.480;7.594;2022-10-16T20:59:41;16.60;99.90
25568;DHT22;13455;51.480;7.594;2022-10-16T21:02:08;16.20;99.90
25568;DHT22;13455;51.480;7.594;2022-10-16T21:04:34;16.30;99.90
25568;DHT22;13455;51.480;7.594;2022-10-16T21:06:59;16.20;99.90
25568;DHT22;13455;51.480;7.594;2022-10-16T21:41:23;16.10;99.90
25568;DHT22;13455;51.480;7.594;2022-10-16T21:43:49;16.00;99.90
25568;DHT22;13455;51.480;7.594;2022-10-16T21:46:16;15.90;99.90
25568;DHT22;13455;51.480;7.594;2022-10-16T21:48:42;15.80;99.90
25568;DHT22;13455;51.480;7.594;2022-10-16T21:51:12;15.80;99.90
25568;DHT22;13455;51.480;7.594;2022-10-16T21:53:38;16.00;99.90
25568;DHT22;13455;51.480;7.594;2022-10-16T21:56:10;15.90;99.90
25568;DHT22;13455;51.480;7.594;2022-10-16T21:58:36;15.90;99.90
25568;DHT22;13455;51.480;7.594;2022-10-16T22:01:11;15.80;99.90
25568;DHT22;13455;51.480;7.594;2022-10-16T22:03:36;15.70;99.90
25568;DHT22;13455;51.480;7.594;2022-10-16T22:06:03;15.70;99.90
25568;DHT22;13455;51.480;7.594;2022-10-16T22:08:30;15.70;99.90
25568;DHT22;13455;51.480;7.594;2022-10-16T22:11:12;15.70;99.90
25568;DHT22;13455;51.480;7.594;2022-10-16T22:13:38;15.60;99.90
25568;DHT22;13455;51.480;7.594;2022-10-16T22:18:31;15.60;99.90
25568;DHT22;13455;51.480;7.594;2022-10-16T22:20:57;15.50;99.90
25568;DHT22;13455;51.480;7.594;2022-10-16T22:23:23;15.60;99.90
25568;DHT22;13455;51.480;7.594;2022-10-16T22:25:49;15.60;99.90
25568;DHT22;13455;51.480;7.594;2022-10-16T22:28:15;15.60;99.90
25568;DHT22;13455;51.480;7.594;2022-10-16T22:30:44;15.50;99.90
25568;DHT22;13455;51.480;7.594;2022-10-16T22:33:10;15.50;99.90
25568;DHT22;13455;51.480;7.594;2022-10-16T22:35:37;15.50;99.90
25568;DHT22;13455;51.480;7.594;2022-10-16T22:38:03;15.50;99.90
25568;DHT22;13455;51.480;7.594;2022-10-16T22:40:29;15.50;99.90
25568;DHT22;13455;51.480;7.594;2022-10-16T22:42:55;15.50;99.90
25568;DHT22;13455;51.480;7.594;2022-10-16T22:45:22;15.50;99.90
25568;DHT22;13455;51.480;7.594;2022-10-16T22:47:47;15.50;99.90
25568;DHT22;13455;51.480;7.594;2022-10-16T22:50:13;15.50;99.90
25568;DHT22;13455;51.480;7.594;2022-10-16T22:52:39;15.50;99.90
25568;DHT22;13455;51.480;7.594;2022-10-16T22:55:05;15.50;99.90
25568;DHT22;13455;51.480;7.594;2022-10-16T22:57:30;15.50;99.90
25568;DHT22;13455;51.480;7.594;2022-10-16T22:59:56;15.50;99.90
25568;DHT22;13455;51.480;7.594;2022-10-16T23:02:22;15.50;99.90
25568;DHT22;13455;51.480;7.594;2022-10-16T23:04:47;15.50;99.90
25568;DHT22;13455;51.480;7.594;2022-10-16T23:07:13;15.50;99.90
25568;DHT22;13455;51.480;7.594;2022-10-16T23:09:38;15.60;99.90
25568;DHT22;13455;51.480;7.594;2022-10-16T23:12:04;15.50;99.90
25568;DHT22;13455;51.480;7.594;2022-10-16T23:14:30;15.50;99.90
25568;DHT22;13455;51.480;7.594;2022-10-16T23:16:55;15.50;99.90
25568;DHT22;13455;51.480;7.594;2022-10-16T23:19:21;15.50;99.90
25568;DHT22;13455;51.480;7.594;2022-10-16T23:21:47;15.50;99.90
25568;DHT22;13455;51.480;7.594;2022-10-16T23:24:12;15.50;99.90
25568;DHT22;13455;51.480;7.594;2022-10-16T23:26:38;15.50;99.90
25568;DHT22;13455;51.480;7.594;2022-10-16T23:29:04;15.50;99.90
25568;DHT22;13455;51.480;7.594;2022-10-16T23:31:29;15.50;99.90
25568;DHT22;13455;51.480;7.594;2022-10-16T23:33:56;15.50;99.90
25568;DHT22;13455;51.480;7.594;2022-10-16T23:36:22;15.30;99.90
25568;DHT22;13455;51.480;7.594;2022-10-16T23:38:48;15.50;99.90
25568;DHT22;13455;51.480;7.594;2022-10-16T23:41:15;15.50;99.90
25568;DHT22;13455;51.480;7.594;2022-10-16T23:43:41;15.50;99.90
25568;DHT22;13455;51.480;7.594;2022-10-16T23:46:08;15.60;99.90
25568;DHT22;13455;51.480;7.594;2022-10-16T23:48:33;15.60;99.90
25568;DHT22;13455;51.480;7.594;2022-10-16T23:51:00;15.60;99.90
25568;DHT22;13455;51.480;7.594;2022-10-16T23:53:25;15.60;99.90
25568;DHT22;13455;51.480;7.594;2022-10-16T23:55:51;15.60;99.90
25568;DHT22;13455;51.480;7.594;2022-10-16T23:58:17;15.50;99.90
